createdAt,value
2022-12-01T00:01:46.897Z,92.21
2022-12-01T00:06:48.816Z,92.58
2022-12-01T00:11:50.625Z,92.81
2022-12-01T00:16:52.373Z,93.19
2022-12-01T00:21:54.223Z,92.83
2022-12-01T00:26:55.852Z,92.98
2022-12-01T00:31:57.657Z,93.07
2022-12-01T00:37:00.390Z,92.95
2022-12-01T00:42:02.118Z,93.35
2022-12-01T00:47:03.774Z,92.88
2022-12-01T00:52:05.964Z,93.37
2022-12-01T00:57:07.911Z,93.38
2022-12-01T01:02:09.628Z,93.62
2022-12-01T01:07:11.362Z,93.90
2022-12-01T01:12:13.135Z,93.86
2022-12-01T01:17:14.725Z,93.85
2022-12-01T01:22:16.517Z,94.01
2022-12-01T01:27:18.142Z,94.16
2022-12-01T01:32:19.716Z,94.49
2022-12-01T01:37:21.351Z,94.13
2022-12-01T01:42:23.053Z,93.72
2022-12-01T01:47:34.947Z,93.40
2022-12-01T01:52:45.203Z,93.84
2022-12-01T01:57:47.171Z,93.63
2022-12-01T02:02:50.430Z,93.33
2022-12-01T02:07:55.423Z,93.11
2022-12-01T02:13:21.987Z,92.99
2022-12-01T02:18:42.156Z,92.88
2022-12-01T02:24:44.177Z,92.68
2022-12-01T02:30:09.187Z,92.63
2022-12-01T02:35:14.477Z,92.82
2022-12-01T02:40:26.802Z,92.58
2022-12-01T02:45:46.297Z,92.50
2022-12-01T02:50:48.900Z,92.63
2022-12-01T02:55:53.888Z,92.71
2022-12-01T03:01:32.761Z,92.63
2022-12-01T03:06:53.526Z,92.24
2022-12-01T03:12:24.098Z,92.92
2022-12-01T03:17:50.404Z,92.85
2022-12-01T03:22:59.306Z,93.23
2022-12-01T03:28:21.626Z,93.14
2022-12-01T03:33:31.450Z,93.38
2022-12-01T03:38:36.313Z,93.57
2022-12-01T03:43:44.171Z,93.55
2022-12-01T03:48:46.588Z,93.79
2022-12-01T03:54:00.388Z,93.72
2022-12-01T03:59:05.076Z,93.83
2022-12-01T04:04:09.045Z,94.18
2022-12-01T04:09:10.661Z,94.51
2022-12-01T04:14:12.332Z,94.37
2022-12-01T04:19:14.189Z,94.32
2022-12-01T04:24:16.138Z,94.26
2022-12-01T04:29:17.755Z,94.61
2022-12-01T04:34:19.409Z,94.45
2022-12-01T04:39:21.303Z,94.70
2022-12-01T04:44:22.961Z,94.28
2022-12-01T04:49:24.860Z,94.08
2022-12-01T04:54:26.891Z,94.19
2022-12-01T04:59:28.703Z,93.96
2022-12-01T05:04:31.519Z,94.40
2022-12-01T05:09:33.420Z,94.21
2022-12-01T05:14:35.137Z,94.44
2022-12-01T05:19:55.212Z,94.29
2022-12-01T05:24:56.815Z,94.25
2022-12-01T05:29:58.397Z,94.82
2022-12-01T05:35:00.164Z,94.49
2022-12-01T05:40:02.156Z,94.58
2022-12-01T05:45:04.016Z,94.67
2022-12-01T05:50:06.340Z,94.84
2022-12-01T05:55:08.399Z,94.68
2022-12-01T06:00:10.618Z,94.69
2022-12-01T06:05:14.878Z,94.28
2022-12-01T06:10:16.753Z,94.33
2022-12-01T06:15:18.497Z,94.57
2022-12-01T06:20:20.161Z,94.62
2022-12-01T06:25:21.817Z,94.84
2022-12-01T06:30:23.504Z,95.05
2022-12-01T06:35:25.130Z,95.10
2022-12-01T06:40:27.202Z,95.55
2022-12-01T06:45:30.235Z,94.82
2022-12-01T06:50:31.993Z,95.10
2022-12-01T06:55:34.110Z,95.56
2022-12-01T07:00:35.820Z,95.28
2022-12-01T07:05:37.920Z,95.03
2022-12-01T07:10:39.715Z,95.03
2022-12-01T07:15:41.279Z,95.20
2022-12-01T07:20:42.880Z,94.63
2022-12-01T07:25:44.479Z,94.15
2022-12-01T07:30:46.182Z,93.35
2022-12-01T07:35:48.142Z,92.99
2022-12-01T07:40:50.070Z,92.79
2022-12-01T07:45:51.803Z,92.33
2022-12-01T07:50:55.862Z,91.86
2022-12-01T07:55:58.727Z,91.79
2022-12-01T08:01:07.036Z,91.39
2022-12-01T08:06:09.440Z,90.15
2022-12-01T08:11:16.575Z,89.36
2022-12-01T08:16:20.906Z,89.88
2022-12-01T08:21:24.148Z,89.60
2022-12-01T08:26:26.403Z,89.95
2022-12-01T08:31:33.174Z,88.88
2022-12-01T08:36:35.340Z,88.76
2022-12-01T08:41:36.941Z,89.08
2022-12-01T08:46:38.837Z,88.09
2022-12-01T08:51:40.522Z,87.89
2022-12-01T08:56:45.128Z,87.37
2022-12-01T09:01:52.557Z,87.37
2022-12-01T09:06:56.193Z,87.08
2022-12-01T09:11:57.836Z,87.14
2022-12-01T09:16:59.621Z,86.70
2022-12-01T09:22:01.748Z,86.08
2022-12-01T09:27:04.160Z,87.52
2022-12-01T09:32:05.777Z,87.13
2022-12-01T09:37:07.666Z,87.46
2022-12-01T09:42:15.425Z,87.83
2022-12-01T09:47:27.213Z,88.07
2022-12-01T09:52:38.428Z,87.74
2022-12-01T09:57:41.277Z,87.37
2022-12-01T10:02:59.487Z,87.97
2022-12-01T10:08:05.789Z,87.65
2022-12-01T10:13:23.740Z,87.95
2022-12-01T10:18:40.567Z,87.88
2022-12-01T10:23:50.116Z,87.27
2022-12-01T10:29:16.340Z,87.35
2022-12-01T10:34:33.510Z,87.34
2022-12-01T10:39:38.789Z,86.81
2022-12-01T10:44:40.830Z,87.11
2022-12-01T10:49:42.615Z,86.75
2022-12-01T10:54:44.222Z,86.64
2022-12-01T10:59:53.289Z,85.00
2022-12-01T11:04:58.680Z,85.32
2022-12-01T11:10:06.111Z,84.58
2022-12-01T11:15:08.657Z,85.20
2022-12-01T11:20:32.718Z,84.48
2022-12-01T11:25:34.488Z,84.50
2022-12-01T11:30:36.151Z,85.37
2022-12-01T11:35:38.352Z,85.42
2022-12-01T11:40:52.108Z,85.81
2022-12-01T11:45:55.769Z,85.14
2022-12-01T11:51:07.736Z,84.86
2022-12-01T11:56:27.985Z,85.03
2022-12-01T12:02:02.242Z,84.93
2022-12-01T12:07:31.745Z,85.28
2022-12-01T12:12:42.305Z,85.10
2022-12-01T12:17:51.318Z,84.74
2022-12-01T12:23:19.711Z,84.43
2022-12-01T12:28:40.133Z,83.74
2022-12-01T12:33:44.745Z,83.50
2022-12-01T12:39:02.935Z,83.87
2022-12-01T12:44:38.497Z,83.89
2022-12-01T12:49:50.783Z,84.16
2022-12-01T12:54:57.878Z,83.59
2022-12-01T13:00:05.220Z,84.29
2022-12-01T13:05:19.285Z,83.92
2022-12-01T13:10:43.270Z,84.16
2022-12-01T13:15:47.213Z,84.23
2022-12-01T13:20:52.114Z,83.84
2022-12-01T13:25:57.151Z,83.27
2022-12-01T13:31:06.332Z,83.45
2022-12-01T13:41:40.474Z,84.46
2022-12-01T13:46:42.281Z,84.37
2022-12-01T13:52:22.087Z,84.44
2022-12-01T13:57:27.062Z,83.13
2022-12-01T14:02:34.755Z,83.43
2022-12-01T14:07:38.209Z,82.89
2022-12-01T14:12:42.145Z,83.37
2022-12-01T14:17:45.246Z,83.36
2022-12-01T14:23:01.938Z,83.34
2022-12-01T14:28:04.523Z,84.03
2022-12-01T14:33:53.773Z,83.81
2022-12-01T14:38:58.931Z,83.81
2022-12-01T14:44:15.313Z,83.83
2022-12-01T14:49:31.450Z,83.96
2022-12-01T14:54:55.856Z,84.91
2022-12-01T15:00:14.167Z,86.00
2022-12-01T15:05:21.943Z,85.86
2022-12-01T15:10:35.011Z,85.59
2022-12-01T15:15:37.679Z,86.03
2022-12-01T15:20:42.422Z,86.17
2022-12-01T15:25:48.865Z,86.29
2022-12-01T15:30:55.159Z,86.82
2022-12-01T15:35:59.195Z,86.83
2022-12-01T15:46:32.959Z,87.42
2022-12-01T15:51:35.112Z,87.54
2022-12-01T15:56:40.777Z,87.99
2022-12-01T16:01:44.945Z,88.96
2022-12-01T16:06:58.110Z,88.93
2022-12-01T16:12:09.598Z,90.26
2022-12-01T16:17:11.378Z,90.69
2022-12-01T16:22:22.333Z,91.23
2022-12-01T16:27:25.067Z,90.39
2022-12-01T16:32:29.683Z,90.27
2022-12-01T16:37:31.749Z,90.06
2022-12-01T16:42:33.699Z,89.48
2022-12-01T16:47:35.324Z,90.22
2022-12-01T16:52:44.325Z,90.42
2022-12-01T16:57:46.547Z,90.03
2022-12-01T17:02:48.186Z,90.22
2022-12-01T17:07:49.910Z,90.77
2022-12-01T17:12:51.983Z,90.73
2022-12-01T17:17:53.570Z,90.42
2022-12-01T17:22:55.196Z,90.44
2022-12-01T17:27:57.025Z,90.33
2022-12-01T17:32:58.657Z,90.11
2022-12-01T17:38:00.510Z,90.97
2022-12-01T17:43:02.168Z,91.16
2022-12-01T17:48:04.407Z,91.15
2022-12-01T17:53:05.972Z,90.79
2022-12-01T17:58:07.603Z,90.97
2022-12-01T18:03:09.565Z,91.48
2022-12-01T18:08:11.500Z,91.78
2022-12-01T18:13:13.150Z,91.97
2022-12-01T18:18:14.851Z,92.28
2022-12-01T18:23:16.492Z,92.34
2022-12-01T18:28:18.093Z,91.68
2022-12-01T18:33:20.975Z,93.03
2022-12-01T18:38:24.905Z,92.92
2022-12-01T18:43:31.138Z,92.86
2022-12-01T18:48:34.926Z,92.79
2022-12-01T18:53:36.654Z,93.01
2022-12-01T18:58:39.419Z,93.45
2022-12-01T19:03:41.040Z,92.73
2022-12-01T19:08:44.632Z,92.95
2022-12-01T19:13:47.381Z,93.25
2022-12-01T19:18:49.347Z,93.57
2022-12-01T19:23:52.650Z,93.04
2022-12-01T19:28:54.700Z,93.49
2022-12-01T19:33:56.555Z,93.49
2022-12-01T19:39:00.576Z,93.70
2022-12-01T19:44:02.616Z,93.84
2022-12-01T19:49:06.603Z,93.38
2022-12-01T19:54:14.788Z,93.63
2022-12-01T19:59:16.676Z,93.86
2022-12-01T20:04:18.600Z,93.98
2022-12-01T20:09:20.188Z,94.08
2022-12-01T20:14:22.604Z,94.06
2022-12-01T20:19:24.218Z,94.36
2022-12-01T20:24:26.208Z,93.96
2022-12-01T20:29:29.601Z,94.30
2022-12-01T20:34:35.760Z,94.16
2022-12-01T20:39:38.676Z,94.50
2022-12-01T20:44:40.615Z,94.19
2022-12-01T20:49:42.299Z,94.34
2022-12-01T20:54:44.774Z,94.61
2022-12-01T20:59:46.795Z,95.17
2022-12-01T21:04:48.807Z,94.97
2022-12-01T21:09:50.584Z,94.53
2022-12-01T21:15:02.523Z,95.15
2022-12-01T21:20:27.157Z,94.66
2022-12-01T21:25:28.791Z,95.18
2022-12-01T21:30:30.688Z,95.64
2022-12-01T21:35:32.511Z,95.32
2022-12-01T21:40:34.339Z,95.11
2022-12-01T21:45:36.294Z,94.84
2022-12-01T21:50:37.928Z,94.96
2022-12-01T21:55:41.669Z,95.02
2022-12-01T22:00:45.521Z,95.16
2022-12-01T22:06:13.684Z,94.78
2022-12-01T22:11:18.758Z,95.28
2022-12-01T22:16:27.758Z,95.04
2022-12-01T22:21:39.928Z,94.94
2022-12-01T22:26:47.714Z,95.33
2022-12-01T22:31:49.412Z,95.11
2022-12-01T22:36:51.534Z,95.32
2022-12-01T22:42:01.283Z,94.83
2022-12-01T22:47:03.826Z,95.01
2022-12-01T22:52:19.688Z,94.79
2022-12-01T22:57:35.053Z,94.96
2022-12-01T23:02:36.787Z,95.13
2022-12-01T23:07:41.756Z,95.29
2022-12-01T23:12:45.518Z,94.96
2022-12-01T23:17:47.850Z,95.33
2022-12-01T23:22:52.396Z,95.71
2022-12-01T23:27:58.292Z,95.78
2022-12-01T23:33:17.791Z,95.51
2022-12-01T23:38:26.479Z,95.59
2022-12-01T23:43:33.059Z,95.67
2022-12-01T23:48:40.951Z,95.65
2022-12-01T23:53:43.159Z,95.33
2022-12-01T23:58:45.401Z,95.21
